Time;durP1;ratioP1;P1;durP2;ratioP2;P2;SDS_P1;SDS_P2;PMS_P1;PMS_P2;Temp;Humidity;BMP_temperature;BMP_pressure;BME280_temperature;BME280_humidity;BME280_pressure;Samples;Min_cycle;Max_cycle;Signal;HPM_P1;HPM_P2
2023/01/18 00:02:18;;;;;;;;;;;;;;;16.94;70.26;99271.41;7402748;19;1833;-80
2023/01/18 00:04:46;;;;;;;;;;;;;;;16.89;70.48;99268.38;7403874;19;1583;-80
2023/01/18 00:07:15;;;;;;;;;;;;;;;16.87;70.65;99275.72;7403317;19;1091;-80
2023/01/18 00:09:43;;;;;;;;;;;;;;;16.86;70.68;99263.38;7398296;19;1781;-80
2023/01/18 00:12:11;;;;;;;;;;;;;;;16.85;70.72;99273.22;7404685;19;1415;-80
2023/01/18 00:14:39;;;;;;;;;;;;;;;16.80;70.57;99258.63;7404480;19;1411;-80
2023/01/18 00:17:07;;;;;;;;;;;;;;;16.78;70.83;99268.63;7402638;19;1356;-80
2023/01/18 00:19:38;;;;;;;;;;;;;;;16.81;70.81;99265.63;7403020;19;1451;-81
2023/01/18 00:22:06;;;;;;;;;;;;;;;16.75;70.69;99284.94;7404583;19;1846;-80
2023/01/18 00:24:35;;;;;;;;;;;;;;;16.79;70.82;99281.81;7400890;19;1208;-80
2023/01/18 00:27:03;;;;;;;;;;;;;;;16.75;70.28;99275.13;7400620;19;1466;-80
2023/01/18 00:29:31;;;;;;;;;;;;;;;16.70;70.89;99270.25;7398744;19;1531;-80
2023/01/18 00:32:00;;;;;;;;;;;;;;;16.64;70.76;99262.88;7399742;19;1665;-80
2023/01/18 00:34:29;;;;;;;;;;;;;;;16.65;70.84;99259.22;7406391;19;1593;-80
2023/01/18 00:37:00;;;;;;;;;;;;;;;16.66;70.74;99268.88;7404022;19;1124;-80
2023/01/18 00:39:28;;;;;;;;;;;;;;;16.67;70.67;99269.72;7403511;19;1674;-80
2023/01/18 00:44:37;;;;;;;;;;;;;;;16.58;71.05;99268.84;7402349;19;1677;-80
2023/01/18 00:47:05;;;;;;;;;;;;;;;16.71;71.44;99273.75;7402167;19;1517;-80
2023/01/18 00:49:33;;;;;;;;;;;;;;;16.80;71.88;99271.97;7400598;19;1344;-80
2023/01/18 00:52:04;;;;;;;;;;;;;;;16.77;71.48;99258.94;7404399;19;1344;-80
2023/01/18 00:54:32;;;;;;;;;;;;;;;16.72;71.94;99269.25;7400606;19;1514;-80
2023/01/18 00:57:00;;;;;;;;;;;;;;;16.67;72.13;99281.25;7396942;19;1415;-80
2023/01/18 00:59:29;;;;;;;;;;;;;;;16.60;72.18;99282.84;7404597;19;1526;-80
2023/01/18 01:01:57;;;;;;;;;;;;;;;16.57;71.65;99258.31;7400960;19;1852;-80
2023/01/18 01:07:09;;;;;;;;;;;;;;;16.53;72.13;99271.13;7399376;19;1037;-80
2023/01/18 01:09:37;;;;;;;;;;;;;;;16.52;71.96;99257.97;7400149;19;1597;-80
2023/01/18 01:28:18;;;;;;;;;;;;;;;16.42;71.52;99250.03;7404189;19;947;-80
2023/01/18 01:30:46;;;;;;;;;;;;;;;16.47;71.43;99263.75;7400535;19;1679;-80
2023/01/18 01:33:14;;;;;;;;;;;;;;;16.46;71.38;99243.41;7401813;19;1466;-80
2023/01/18 01:35:43;;;;;;;;;;;;;;;16.40;71.90;99238.69;7400745;19;1218;-80
2023/01/18 01:38:13;;;;;;;;;;;;;;;16.41;71.43;99249.22;7401093;19;1491;-80
2023/01/18 01:40:42;;;;;;;;;;;;;;;16.36;71.91;99256.00;7401769;19;1070;-81
2023/01/18 01:43:13;;;;;;;;;;;;;;;16.35;71.89;99241.81;7397939;19;1861;-80
2023/01/18 01:45:41;;;;;;;;;;;;;;;16.35;71.64;99254.31;7401482;19;1765;-80
2023/01/18 01:48:11;;;;;;;;;;;;;;;16.31;71.95;99240.44;7398614;19;1554;-80
2023/01/18 01:50:40;;;;;;;;;;;;;;;16.33;72.05;99240.28;7401751;19;1376;-81
2023/01/18 01:53:10;;;;;;;;;;;;;;;16.35;71.56;99251.66;7400405;19;1244;-80
2023/01/18 01:55:41;;;;;;;;;;;;;;;16.30;72.00;99234.28;7394446;19;1392;-80
2023/01/18 01:58:12;;;;;;;;;;;;;;;16.32;71.65;99217.28;7399982;19;1234;-80
2023/01/18 02:00:41;;;;;;;;;;;;;;;16.33;71.88;99230.44;7399626;19;1475;-80
2023/01/18 02:03:11;;;;;;;;;;;;;;;16.38;71.38;99238.84;7401108;19;1864;-80
2023/01/18 02:05:42;;;;;;;;;;;;;;;16.34;71.21;99229.47;7397367;19;1577;-80
2023/01/18 02:08:12;;;;;;;;;;;;;;;16.34;71.38;99237.47;7398620;19;1783;-81
2023/01/18 02:10:43;;;;;;;;;;;;;;;16.31;71.42;99240.44;7396325;19;1429;-81
2023/01/18 02:13:12;;;;;;;;;;;;;;;16.28;71.67;99240.78;7399905;19;1673;-80
2023/01/18 02:15:44;;;;;;;;;;;;;;;16.24;71.80;99234.91;7401565;19;1647;-81
2023/01/18 02:18:16;;;;;;;;;;;;;;;16.28;71.54;99262.94;7398421;19;1646;-80
2023/01/18 02:21:05;;;;;;;;;;;;;;;16.26;71.86;99246.25;7396977;19;1360;-80
2023/01/18 02:23:35;;;;;;;;;;;;;;;16.27;71.80;99233.75;7397505;19;1839;-80
2023/01/18 02:26:19;;;;;;;;;;;;;;;16.26;71.62;99251.59;7399664;19;1399;-80
2023/01/18 02:28:54;;;;;;;;;;;;;;;16.24;71.26;99232.22;7398927;19;1603;-81
2023/01/18 02:31:24;;;;;;;;;;;;;;;16.26;71.39;99232.91;7392534;19;1392;-80
2023/01/18 02:33:58;;;;;;;;;;;;;;;16.24;71.42;99248.25;7393289;19;1516;-80
2023/01/18 02:36:32;;;;;;;;;;;;;;;16.18;71.39;99240.84;7393992;19;1491;-80
2023/01/18 02:39:05;;;;;;;;;;;;;;;16.28;71.08;99246.94;7399403;19;1209;-80
2023/01/18 02:47:02;;;;;;;;;;;;;;;16.19;71.53;99253.19;7398622;19;1198;-80
2023/01/18 02:49:31;;;;;;;;;;;;;;;16.26;71.43;99242.75;7400705;19;1567;-80
2023/01/18 02:52:03;;;;;;;;;;;;;;;17.32;68.41;99229.19;7399188;19;1502;-80
2023/01/18 02:54:32;;;;;;;;;;;;;;;18.45;64.72;99245.56;7395286;19;1734;-80
2023/01/18 02:57:01;;;;;;;;;;;;;;;19.38;62.49;99238.78;7395563;19;1609;-80
2023/01/18 02:59:35;;;;;;;;;;;;;;;19.66;61.68;99230.25;7398372;19;1547;-80
2023/01/18 03:02:05;;;;;;;;;;;;;;;19.69;61.40;99224.53;7391939;19;1594;-80
2023/01/18 03:04:36;;;;;;;;;;;;;;;19.42;62.75;99241.97;7395472;19;1817;-80
2023/01/18 03:07:05;;;;;;;;;;;;;;;19.28;62.77;99232.81;7394744;19;1477;-80
2023/01/18 03:09:34;;;;;;;;;;;;;;;19.29;63.00;99239.84;7394495;19;1455;-80
2023/01/18 03:12:04;;;;;;;;;;;;;;;19.23;63.01;99219.09;7396940;19;1582;-80
2023/01/18 03:14:40;;;;;;;;;;;;;;;19.26;62.99;99224.13;7398142;19;1591;-80
2023/01/18 03:17:12;;;;;;;;;;;;;;;19.28;62.98;99224.78;7396945;19;1451;-80
2023/01/18 03:23:36;;;;;;;;;;;;;;;19.29;63.05;99229.09;7401627;19;1146;-80
2023/01/18 03:25:12;;;;;;;;;;;;;;;19.30;63.01;99238.84;7396131;19;1760;-80
2023/01/18 03:35:49;;;;;;;;;;;;;;;19.50;62.74;99227.66;7393357;19;1704;-80
2023/01/18 03:38:18;;;;;;;;;;;;;;;19.50;62.70;99230.34;7394258;19;1393;-80
2023/01/18 03:40:46;;;;;;;;;;;;;;;19.59;62.44;99240.00;7395960;19;1471;-79
2023/01/18 03:43:16;;;;;;;;;;;;;;;19.66;62.52;99231.09;7396099;19;1848;-80
2023/01/18 03:45:48;;;;;;;;;;;;;;;19.56;62.69;99238.53;7398085;19;1681;-80
2023/01/18 03:48:17;;;;;;;;;;;;;;;19.59;62.28;99230.13;7397592;19;1558;-80
2023/01/18 03:50:49;;;;;;;;;;;;;;;19.62;62.46;99231.63;7398818;19;1667;-80
2023/01/18 03:53:21;;;;;;;;;;;;;;;19.69;61.96;99216.47;7395018;19;1376;-80
2023/01/18 03:55:51;;;;;;;;;;;;;;;19.76;61.97;99222.84;7394150;19;1473;-80
2023/01/18 03:58:22;;;;;;;;;;;;;;;19.83;61.79;99226.47;7398934;19;871;-80
2023/01/18 04:00:53;;;;;;;;;;;;;;;19.80;61.84;99231.38;7398566;19;1777;-80
2023/01/18 04:03:21;;;;;;;;;;;;;;;19.86;61.64;99238.72;7394159;19;1847;-80
2023/01/18 04:05:49;;;;;;;;;;;;;;;19.85;61.67;99243.22;7398694;19;1657;-80
2023/01/18 04:08:20;;;;;;;;;;;;;;;19.72;62.16;99236.81;7393451;19;1473;-80
2023/01/18 04:10:48;;;;;;;;;;;;;;;19.73;61.76;99250.00;7398301;19;1221;-80
2023/01/18 04:13:17;;;;;;;;;;;;;;;19.60;61.97;99247.88;7399169;19;995;-80
2023/01/18 04:15:45;;;;;;;;;;;;;;;19.61;62.03;99260.28;7396521;19;1494;-80
2023/01/18 04:18:16;;;;;;;;;;;;;;;19.80;61.70;99253.66;7399916;19;1503;-80
2023/01/18 04:20:44;;;;;;;;;;;;;;;19.91;61.75;99256.94;7404830;19;1754;-80
2023/01/18 04:23:15;;;;;;;;;;;;;;;19.69;61.84;99256.72;7402203;19;1851;-80
2023/01/18 04:25:48;;;;;;;;;;;;;;;19.69;62.37;99256.72;7406033;19;1491;-80
2023/01/18 04:28:24;;;;;;;;;;;;;;;19.73;62.25;99263.41;7402616;19;1030;-80
2023/01/18 04:30:52;;;;;;;;;;;;;;;19.92;61.63;99251.41;7402443;19;1782;-80
2023/01/18 04:33:25;;;;;;;;;;;;;;;19.91;61.51;99257.78;7404089;19;1772;-80
2023/01/18 04:35:54;;;;;;;;;;;;;;;19.79;61.80;99267.25;7402709;19;1694;-80
2023/01/18 04:38:22;;;;;;;;;;;;;;;19.76;62.08;99263.09;7401066;19;1181;-80
2023/01/18 04:40:51;;;;;;;;;;;;;;;19.61;62.79;99256.75;7399045;19;1333;-80
2023/01/18 04:43:19;;;;;;;;;;;;;;;19.11;64.19;99280.25;7404595;19;1869;-80
2023/01/18 04:45:54;;;;;;;;;;;;;;;18.84;64.66;99273.47;7402675;19;1800;-80
2023/01/18 04:48:25;;;;;;;;;;;;;;;19.48;63.50;99274.25;7397157;19;1354;-81
2023/01/18 04:50:56;;;;;;;;;;;;;;;19.57;63.22;99269.69;7399723;19;1385;-80
2023/01/18 04:53:25;;;;;;;;;;;;;;;19.73;62.67;99266.09;7403137;19;1507;-80
2023/01/18 04:55:53;;;;;;;;;;;;;;;19.89;62.61;99277.75;7404206;19;1464;-80
2023/01/18 04:58:21;;;;;;;;;;;;;;;19.87;62.96;99288.66;7405721;19;1382;-80
2023/01/18 05:00:49;;;;;;;;;;;;;;;19.92;63.24;99285.47;7401434;19;1536;-80
2023/01/18 05:03:17;;;;;;;;;;;;;;;19.88;62.83;99297.56;7404688;19;1849;-81
2023/01/18 05:05:48;;;;;;;;;;;;;;;19.79;63.47;99289.53;7396302;19;1327;-79
2023/01/18 05:08:17;;;;;;;;;;;;;;;19.85;63.21;99286.13;7405006;19;1205;-79
2023/01/18 05:10:45;;;;;;;;;;;;;;;19.91;63.15;99291.81;7403927;19;1354;-83
2023/01/18 05:13:13;;;;;;;;;;;;;;;19.89;62.94;99299.22;7401538;19;1664;-82
2023/01/18 05:15:41;;;;;;;;;;;;;;;19.70;62.70;99304.00;7403518;19;1596;-80
2023/01/18 05:18:10;;;;;;;;;;;;;;;19.74;62.60;99307.19;7403617;19;1647;-79
2023/01/18 05:20:38;;;;;;;;;;;;;;;19.77;62.59;99306.81;7400280;19;1232;-80
2023/01/18 05:23:09;;;;;;;;;;;;;;;19.80;62.64;99306.47;7406142;19;1166;-80
2023/01/18 05:25:38;;;;;;;;;;;;;;;19.82;62.58;99315.19;7407983;19;1093;-80
2023/01/18 05:28:07;;;;;;;;;;;;;;;19.74;62.40;99324.13;7405858;19;1601;-80
2023/01/18 05:30:35;;;;;;;;;;;;;;;19.74;62.56;99328.66;7406010;19;1529;-80
2023/01/18 05:33:03;;;;;;;;;;;;;;;19.85;62.26;99321.00;7405215;19;1713;-80
2023/01/18 05:35:33;;;;;;;;;;;;;;;19.75;62.66;99315.03;7405502;19;1415;-80
2023/01/18 05:38:01;;;;;;;;;;;;;;;19.76;62.57;99321.25;7404877;19;1381;-80
2023/01/18 05:40:32;;;;;;;;;;;;;;;19.76;62.73;99335.50;7403855;19;1816;-80
2023/01/18 05:43:00;;;;;;;;;;;;;;;19.83;62.34;99339.13;7404876;19;1749;-80
2023/01/18 05:45:28;;;;;;;;;;;;;;;19.84;62.25;99322.03;7403297;19;1836;-79
2023/01/18 05:47:56;;;;;;;;;;;;;;;19.84;62.49;99308.63;7404338;19;1586;-80
2023/01/18 05:50:25;;;;;;;;;;;;;;;19.88;62.19;99335.13;7403701;19;1286;-80
2023/01/18 05:52:53;;;;;;;;;;;;;;;19.77;62.55;99323.75;7405195;19;1249;-80
2023/01/18 05:55:21;;;;;;;;;;;;;;;19.78;62.62;99343.38;7403365;19;1800;-80
2023/01/18 05:57:52;;;;;;;;;;;;;;;19.81;62.64;99345.69;7405203;19;1724;-80
2023/01/18 06:00:20;;;;;;;;;;;;;;;19.92;62.50;99344.47;7403997;19;1309;-79
2023/01/18 06:02:49;;;;;;;;;;;;;;;19.91;62.49;99350.84;7404879;19;1938;-80
2023/01/18 06:05:17;;;;;;;;;;;;;;;19.93;62.42;99348.81;7402233;19;1863;-80
2023/01/18 06:07:46;;;;;;;;;;;;;;;19.97;62.46;99360.88;7403686;19;1596;-80
2023/01/18 06:10:15;;;;;;;;;;;;;;;20.02;62.43;99358.50;7404437;19;1687;-79
2023/01/18 06:12:43;;;;;;;;;;;;;;;20.04;62.36;99348.44;7403540;19;1658;-80
2023/01/18 06:15:15;;;;;;;;;;;;;;;20.03;62.42;99349.44;7404691;19;1296;-80
2023/01/18 06:17:43;;;;;;;;;;;;;;;20.07;62.74;99342.69;7403860;19;1579;-80
2023/01/18 06:20:13;;;;;;;;;;;;;;;20.12;62.53;99359.13;7403389;19;1443;-80
2023/01/18 06:22:41;;;;;;;;;;;;;;;20.16;62.57;99352.38;7403696;19;1566;-80
2023/01/18 06:25:10;;;;;;;;;;;;;;;20.17;63.58;99367.44;7402748;19;1838;-79
2023/01/18 06:27:39;;;;;;;;;;;;;;;20.01;64.04;99368.38;7403999;19;1670;-78
2023/01/18 06:30:09;;;;;;;;;;;;;;;20.04;63.90;99367.22;7403567;19;1458;-78
2023/01/18 06:32:40;;;;;;;;;;;;;;;20.10;63.88;99371.88;7402797;19;1470;-78
2023/01/18 06:35:09;;;;;;;;;;;;;;;20.10;63.82;99363.81;7402943;19;1734;-78
2023/01/18 06:37:37;;;;;;;;;;;;;;;20.08;64.01;99373.06;7403593;19;1168;-78
2023/01/18 06:40:06;;;;;;;;;;;;;;;20.09;64.30;99380.09;7401381;19;1716;-78
2023/01/18 06:42:34;;;;;;;;;;;;;;;20.19;64.27;99370.81;7403167;19;1474;-78
2023/01/18 06:45:03;;;;;;;;;;;;;;;19.84;65.91;99389.09;7402438;19;1854;-78
2023/01/18 06:47:31;;;;;;;;;;;;;;;19.34;67.56;99392.94;7401429;19;1598;-78
2023/01/18 06:50:02;;;;;;;;;;;;;;;19.00;68.83;99379.75;7401234;19;1659;-78
2023/01/18 06:52:30;;;;;;;;;;;;;;;18.82;69.11;99387.97;7402413;19;1771;-78
2023/01/18 06:54:58;;;;;;;;;;;;;;;19.04;68.41;99392.66;7400848;19;1529;-78
2023/01/18 06:57:26;;;;;;;;;;;;;;;19.55;66.72;99380.81;7403677;19;1650;-78
2023/01/18 06:59:55;;;;;;;;;;;;;;;19.97;64.74;99385.00;7403062;19;1357;-78
2023/01/18 07:02:23;;;;;;;;;;;;;;;19.63;64.63;99400.38;7401757;19;1564;-77
2023/01/18 07:04:51;;;;;;;;;;;;;;;19.07;65.45;99392.28;7402716;19;1859;-77
2023/01/18 07:07:22;;;;;;;;;;;;;;;18.63;66.31;99391.78;7402063;19;1498;-77
2023/01/18 07:09:50;;;;;;;;;;;;;;;18.45;66.86;99394.63;7400628;19;1490;-78
2023/01/18 07:12:19;;;;;;;;;;;;;;;18.97;63.57;99406.88;7401411;19;1583;-78
2023/01/18 07:14:47;;;;;;;;;;;;;;;19.59;62.21;99412.47;7400489;19;1567;-78
2023/01/18 07:17:16;;;;;;;;;;;;;;;20.01;60.95;99403.25;7401682;19;1364;-78
2023/01/18 07:19:44;;;;;;;;;;;;;;;20.08;61.23;99411.47;7401947;19;1352;-78
2023/01/18 07:22:12;;;;;;;;;;;;;;;20.15;61.29;99392.81;7391487;19;1340;-78
2023/01/18 07:24:44;;;;;;;;;;;;;;;19.80;65.13;99408.41;7398672;19;1861;-78
2023/01/18 07:27:12;;;;;;;;;;;;;;;19.19;64.43;99410.72;7399339;19;1855;-78
2023/01/18 07:29:40;;;;;;;;;;;;;;;18.79;69.17;99421.28;7398909;19;1587;-78
2023/01/18 07:32:09;;;;;;;;;;;;;;;18.63;70.48;99414.03;7398821;19;1412;-78
2023/01/18 07:34:37;;;;;;;;;;;;;;;18.53;69.80;99405.34;7400083;19;1159;-78
2023/01/18 07:37:05;;;;;;;;;;;;;;;18.49;70.44;99409.34;7398770;19;1681;-78
2023/01/18 07:39:33;;;;;;;;;;;;;;;18.43;70.64;99400.13;7399790;19;1440;-78
2023/01/18 07:42:04;;;;;;;;;;;;;;;18.42;70.34;99414.53;7397247;19;1463;-78
2023/01/18 07:44:32;;;;;;;;;;;;;;;18.38;70.42;99412.31;7400725;19;1863;-78
2023/01/18 07:47:01;;;;;;;;;;;;;;;18.34;70.66;99408.31;7398986;19;1349;-78
2023/01/18 07:49:29;;;;;;;;;;;;;;;18.28;70.93;99405.31;7400238;19;1579;-79
2023/01/18 07:51:57;;;;;;;;;;;;;;;18.26;71.03;99404.63;7400377;19;1314;-78
2023/01/18 07:54:25;;;;;;;;;;;;;;;18.29;70.92;99404.28;7404372;19;1497;-78
2023/01/18 07:56:54;;;;;;;;;;;;;;;18.32;71.41;99407.63;7405796;19;1373;-78
2023/01/18 07:59:26;;;;;;;;;;;;;;;18.24;70.52;99433.41;7406262;19;1690;-79
2023/01/18 08:01:55;;;;;;;;;;;;;;;18.12;70.85;99415.94;7406699;19;1591;-77
2023/01/18 08:04:23;;;;;;;;;;;;;;;18.06;70.69;99413.91;7405479;19;1861;-77
2023/01/18 08:06:52;;;;;;;;;;;;;;;18.02;70.81;99410.72;7406787;19;1478;-77
2023/01/18 08:09:21;;;;;;;;;;;;;;;18.14;70.48;99416.63;7407023;19;1519;-77
2023/01/18 08:11:49;;;;;;;;;;;;;;;18.26;69.89;99404.63;7406132;19;1677;-77
2023/01/18 08:14:17;;;;;;;;;;;;;;;18.25;70.12;99397.59;7406945;19;1570;-77
2023/01/18 08:16:48;;;;;;;;;;;;;;;18.17;70.28;99413.63;7406072;19;1475;-77
2023/01/18 08:19:16;;;;;;;;;;;;;;;17.99;69.58;99413.75;7406082;19;1523;-77
2023/01/18 08:21:44;;;;;;;;;;;;;;;18.00;70.53;99406.53;7406749;19;1427;-77
2023/01/18 08:24:13;;;;;;;;;;;;;;;18.09;70.42;99414.44;7405722;19;1851;-77
2023/01/18 08:26:41;;;;;;;;;;;;;;;18.11;70.37;99411.59;7406671;19;1657;-78
2023/01/18 08:29:09;;;;;;;;;;;;;;;18.16;70.20;99406.59;7407423;19;1399;-78
2023/01/18 08:31:37;;;;;;;;;;;;;;;18.27;69.35;99425.03;7406845;19;1403;-78
2023/01/18 08:34:08;;;;;;;;;;;;;;;18.17;69.35;99416.31;7408169;19;1492;-78
2023/01/18 08:36:36;;;;;;;;;;;;;;;18.15;67.76;99431.69;7407953;19;1574;-78
2023/01/18 08:39:05;;;;;;;;;;;;;;;18.04;67.86;99418.59;7406786;19;1640;-78
2023/01/18 08:41:33;;;;;;;;;;;;;;;18.02;68.04;99431.28;7408518;19;1525;-78
2023/01/18 08:44:01;;;;;;;;;;;;;;;18.03;67.38;99430.31;7407441;19;1668;-78
2023/01/18 08:46:30;;;;;;;;;;;;;;;18.00;67.74;99417.25;7404330;19;1833;-78
2023/01/18 08:48:59;;;;;;;;;;;;;;;17.98;68.14;99408.53;7407576;19;1689;-78
2023/01/18 08:51:29;;;;;;;;;;;;;;;17.94;68.80;99431.25;7408933;19;1045;-78
2023/01/18 08:54:00;;;;;;;;;;;;;;;17.87;68.59;99423.88;7404346;19;1621;-78
2023/01/18 08:56:29;;;;;;;;;;;;;;;17.87;69.01;99421.22;7408129;19;1003;-77
2023/01/18 08:58:57;;;;;;;;;;;;;;;17.84;69.04;99421.53;7405562;19;1733;-78
2023/01/18 09:01:26;;;;;;;;;;;;;;;17.81;69.15;99419.16;7406488;19;1591;-77
2023/01/18 09:03:55;;;;;;;;;;;;;;;17.84;68.72;99424.19;7405932;19;1562;-78
2023/01/18 09:06:23;;;;;;;;;;;;;;;17.85;68.92;99415.19;7404685;19;1849;-78
2023/01/18 09:08:54;;;;;;;;;;;;;;;17.80;68.59;99408.63;7403790;19;1971;-78
2023/01/18 09:11:22;;;;;;;;;;;;;;;17.78;68.74;99405.25;7406331;19;1591;-78
2023/01/18 09:13:54;;;;;;;;;;;;;;;17.83;68.98;99425.22;7405886;19;1653;-78
2023/01/18 09:16:23;;;;;;;;;;;;;;;17.78;69.08;99423.97;7407189;19;1587;-78
2023/01/18 09:18:51;;;;;;;;;;;;;;;17.76;68.92;99423.31;7406774;19;1598;-78
2023/01/18 09:21:19;;;;;;;;;;;;;;;17.76;69.20;99425.97;7407073;19;1015;-78
2023/01/18 09:23:50;;;;;;;;;;;;;;;17.76;69.30;99434.00;7403513;19;1653;-78
2023/01/18 09:26:21;;;;;;;;;;;;;;;17.67;68.99;99438.47;7404584;19;1855;-78
2023/01/18 09:28:51;;;;;;;;;;;;;;;17.63;69.00;99437.13;7405157;19;1419;-78
2023/01/18 09:31:19;;;;;;;;;;;;;;;17.64;69.30;99420.06;7405824;19;1384;-78
2023/01/18 09:33:48;;;;;;;;;;;;;;;17.66;68.96;99423.41;7406386;19;1138;-77
2023/01/18 09:36:17;;;;;;;;;;;;;;;17.61;68.81;99415.88;7404858;19;1106;-77
2023/01/18 09:38:46;;;;;;;;;;;;;;;17.58;69.10;99408.19;7403287;19;1744;-78
2023/01/18 09:41:24;;;;;;;;;;;;;;;17.61;69.03;99417.72;7405344;19;1599;-77
2023/01/18 09:43:54;;;;;;;;;;;;;;;17.57;69.07;99416.38;7404839;19;1582;-78
2023/01/18 09:46:24;;;;;;;;;;;;;;;17.54;69.13;99446.06;7404209;19;1842;-78
2023/01/18 09:48:55;;;;;;;;;;;;;;;17.53;69.22;99439.91;7403022;19;1489;-78
2023/01/18 09:51:25;;;;;;;;;;;;;;;17.53;69.15;99437.22;7405850;19;1032;-77
2023/01/18 09:54:01;;;;;;;;;;;;;;;17.53;69.04;99439.91;7401359;19;1788;-78
2023/01/18 09:56:34;;;;;;;;;;;;;;;17.46;69.15;99438.84;7403409;19;1653;-78
2023/01/18 09:59:07;;;;;;;;;;;;;;;17.46;69.06;99430.81;7404524;19;1663;-78
2023/01/18 10:01:36;;;;;;;;;;;;;;;17.52;68.77;99442.72;7404149;19;1407;-78
2023/01/18 10:04:07;;;;;;;;;;;;;;;17.48;68.71;99447.53;7403306;19;1337;-77
2023/01/18 10:06:38;;;;;;;;;;;;;;;17.53;68.67;99441.72;7403239;19;1839;-78
2023/01/18 10:09:08;;;;;;;;;;;;;;;17.53;68.99;99439.91;7401707;19;1554;-78
2023/01/18 10:11:46;;;;;;;;;;;;;;;17.46;68.46;99444.19;7405185;19;1606;-78
2023/01/18 10:14:18;;;;;;;;;;;;;;;17.51;68.51;99433.88;7404240;19;1407;-78
2023/01/18 10:16:50;;;;;;;;;;;;;;;17.55;68.53;99427.22;7402053;19;1649;-77
2023/01/18 10:19:24;;;;;;;;;;;;;;;17.56;68.21;99412.00;7403345;19;1674;-78
2023/01/18 10:21:56;;;;;;;;;;;;;;;17.58;68.06;99412.69;7404700;19;1045;-78
2023/01/18 10:24:36;;;;;;;;;;;;;;;17.54;68.04;99419.34;7403229;19;1805;-78
2023/01/18 10:27:19;;;;;;;;;;;;;;;17.49;68.21;99442.03;7401254;19;1839;-78
2023/01/18 10:29:59;;;;;;;;;;;;;;;17.61;68.05;99436.44;7400017;19;1491;-78
2023/01/18 10:32:27;;;;;;;;;;;;;;;17.64;67.38;99452.16;7402076;19;1567;-78
2023/01/18 10:34:56;;;;;;;;;;;;;;;17.64;67.17;99449.47;7402871;19;1833;-78
2023/01/18 10:37:30;;;;;;;;;;;;;;;17.67;67.13;99441.97;7401224;19;1572;-78
2023/01/18 10:39:59;;;;;;;;;;;;;;;17.72;66.82;99438.00;7403314;19;1836;-78
2023/01/18 10:42:31;;;;;;;;;;;;;;;17.63;67.13;99437.94;7403253;19;1614;-77
2023/01/18 10:45:01;;;;;;;;;;;;;;;17.56;66.82;99449.44;7403506;19;1861;-77
2023/01/18 10:47:30;;;;;;;;;;;;;;;17.50;67.24;99443.72;7402112;19;1606;-78
2023/01/18 10:49:59;;;;;;;;;;;;;;;17.44;67.92;99463.06;7400911;19;1658;-78
2023/01/18 10:52:29;;;;;;;;;;;;;;;17.45;67.82;99462.06;7401173;19;1403;-77
2023/01/18 10:55:00;;;;;;;;;;;;;;;17.40;67.88;99456.34;7400647;19;1784;-78
2023/01/18 10:57:30;;;;;;;;;;;;;;;17.39;68.01;99438.66;7401539;19;1668;-78
2023/01/18 10:59:58;;;;;;;;;;;;;;;17.37;67.75;99450.47;7403518;19;1023;-78
2023/01/18 11:02:32;;;;;;;;;;;;;;;17.36;67.86;99454.97;7401661;19;1604;-78
2023/01/18 11:05:03;;;;;;;;;;;;;;;17.36;67.97;99460.31;7403782;19;1579;-78
2023/01/18 11:07:31;;;;;;;;;;;;;;;17.33;67.74;99455.31;7401086;19;1606;-77
2023/01/18 11:10:08;;;;;;;;;;;;;;;17.38;67.77;99449.50;7402765;19;1599;-77
2023/01/18 11:12:40;;;;;;;;;;;;;;;17.41;67.36;99446.53;7402973;19;1586;-77
2023/01/18 11:15:23;;;;;;;;;;;;;;;17.45;67.22;99446.03;7402355;19;1615;-78
2023/01/18 11:18:05;;;;;;;;;;;;;;;17.46;66.71;99453.03;7401747;19;1590;-78
2023/01/18 11:20:36;;;;;;;;;;;;;;;17.49;67.16;99447.41;7399249;19;1645;-78
2023/01/18 11:23:06;;;;;;;;;;;;;;;17.49;66.58;99458.09;7402532;19;1098;-78
2023/01/18 11:25:38;;;;;;;;;;;;;;;17.48;66.80;99453.72;7402866;19;1869;-77
2023/01/18 11:28:09;;;;;;;;;;;;;;;17.48;66.84;99452.88;7407743;19;1729;-77
2023/01/18 11:30:38;;;;;;;;;;;;;;;17.45;66.57;99470.09;7408816;19;1550;-77
2023/01/18 11:33:16;;;;;;;;;;;;;;;17.41;66.38;99468.72;7408600;19;1667;-78
2023/01/18 11:35:44;;;;;;;;;;;;;;;17.47;66.56;99459.25;7407611;19;1491;-78
2023/01/18 11:38:19;;;;;;;;;;;;;;;17.44;66.77;99472.91;7410057;19;1665;-77
2023/01/18 11:40:47;;;;;;;;;;;;;;;17.37;66.72;99450.47;7410735;19;1090;-78
2023/01/18 11:43:18;;;;;;;;;;;;;;;17.43;66.71;99452.53;7409938;19;1707;-78
2023/01/18 11:45:50;;;;;;;;;;;;;;;17.45;66.21;99454.06;7409458;19;1847;-78
2023/01/18 11:48:25;;;;;;;;;;;;;;;17.46;66.54;99454.88;7408867;19;1721;-77
2023/01/18 11:50:55;;;;;;;;;;;;;;;17.44;66.10;99447.00;7409997;19;1747;-78
2023/01/18 11:53:32;;;;;;;;;;;;;;;17.45;66.39;99472.75;7411007;19;1559;-77
2023/01/18 11:56:05;;;;;;;;;;;;;;;17.40;66.58;99469.69;7409342;19;1653;-78
2023/01/18 11:58:35;;;;;;;;;;;;;;;17.39;66.36;99453.81;7410011;19;1611;-77
2023/01/18 12:01:14;;;;;;;;;;;;;;;17.34;67.05;99472.19;7410649;19;941;-77
2023/01/18 12:03:58;;;;;;;;;;;;;;;17.26;67.44;99475.63;7410040;19;1182;-78
2023/01/18 12:06:32;;;;;;;;;;;;;;;17.29;67.08;99480.66;7408851;19;1839;-78
2023/01/18 12:09:10;;;;;;;;;;;;;;;17.37;66.96;99472.72;7406277;19;1808;-78
2023/01/18 12:11:44;;;;;;;;;;;;;;;17.28;67.02;99468.28;7409134;19;1612;-77
2023/01/18 12:14:17;;;;;;;;;;;;;;;17.31;66.39;99470.66;7408820;19;1673;-78
2023/01/18 12:16:53;;;;;;;;;;;;;;;17.35;66.59;99458.66;7408495;19;1634;-78
2023/01/18 12:19:36;;;;;;;;;;;;;;;17.37;66.80;99461.16;7408358;19;1615;-78
2023/01/18 12:22:16;;;;;;;;;;;;;;;17.38;66.45;99474.38;7409034;19;1180;-77
2023/01/18 12:24:49;;;;;;;;;;;;;;;17.41;66.27;99482.09;7407353;19;1832;-78
2023/01/18 12:27:22;;;;;;;;;;;;;;;17.40;66.22;99488.41;7405961;19;1853;-78
2023/01/18 12:30:08;;;;;;;;;;;;;;;17.36;66.56;99471.00;7407461;19;1588;-78
2023/01/18 12:32:54;;;;;;;;;;;;;;;17.38;65.89;99474.38;7406788;19;1597;-78
2023/01/18 12:35:29;;;;;;;;;;;;;;;17.39;65.93;99496.56;7408539;19;1629;-77
2023/01/18 12:38:01;;;;;;;;;;;;;;;17.38;65.98;99478.88;7405852;19;1235;-77
2023/01/18 12:40:38;;;;;;;;;;;;;;;17.37;66.33;99482.53;7407023;19;1796;-78
2023/01/18 12:43:13;;;;;;;;;;;;;;;17.35;66.09;99489.88;7407733;19;1545;-78
2023/01/18 12:45:42;;;;;;;;;;;;;;;17.33;66.07;99474.03;7407599;19;1842;-78
2023/01/18 12:48:15;;;;;;;;;;;;;;;17.40;66.17;99477.72;7407193;19;1891;-78
2023/01/18 12:50:47;;;;;;;;;;;;;;;17.53;66.12;99485.34;7405605;19;1670;-78
2023/01/18 12:53:17;;;;;;;;;;;;;;;17.57;66.52;99484.03;7407780;19;1598;-77
2023/01/18 12:55:47;;;;;;;;;;;;;;;17.59;66.19;99495.41;7405782;19;1387;-77
2023/01/18 12:58:20;;;;;;;;;;;;;;;17.46;66.07;99485.09;7407533;19;1745;-78
2023/01/18 13:00:51;;;;;;;;;;;;;;;17.42;66.12;99501.63;7404273;19;1737;-77
2023/01/18 13:03:21;;;;;;;;;;;;;;;17.38;66.20;99490.41;7407064;19;1571;-78
2023/01/18 13:05:56;;;;;;;;;;;;;;;17.46;66.64;99501.16;7405901;19;1835;-78
2023/01/18 13:08:42;;;;;;;;;;;;;;;17.62;66.33;99494.25;7407194;19;1007;-78
2023/01/18 13:11:13;;;;;;;;;;;;;;;17.53;66.64;99508.53;7408070;19;1606;-77
2023/01/18 13:13:43;;;;;;;;;;;;;;;17.48;66.27;99522.38;7407537;19;1018;-78
2023/01/18 13:16:20;;;;;;;;;;;;;;;17.42;66.69;99523.00;7407620;19;1815;-78
2023/01/18 13:18:53;;;;;;;;;;;;;;;17.37;66.87;99518.13;7406256;19;1721;-78
2023/01/18 13:21:27;;;;;;;;;;;;;;;17.32;66.78;99532.94;7406851;19;1542;-77
2023/01/18 13:24:03;;;;;;;;;;;;;;;17.29;67.14;99529.59;7403268;19;1722;-77
2023/01/18 13:26:32;;;;;;;;;;;;;;;17.42;67.12;99528.34;7405536;19;1871;-77
2023/01/18 13:29:16;;;;;;;;;;;;;;;17.53;66.42;99536.13;7405961;19;1643;-77
2023/01/18 13:31:45;;;;;;;;;;;;;;;17.53;66.53;99540.59;7406045;19;1486;-77
2023/01/18 13:34:34;;;;;;;;;;;;;;;17.50;66.75;99525.72;7405684;19;1583;-78
2023/01/18 13:37:08;;;;;;;;;;;;;;;17.39;67.23;99542.88;7405161;19;1066;-78
2023/01/18 13:39:45;;;;;;;;;;;;;;;17.33;67.03;99539.94;7405012;19;2039;-77
2023/01/18 13:42:27;;;;;;;;;;;;;;;17.30;67.02;99541.09;7404772;19;1473;-78
2023/01/18 13:45:14;;;;;;;;;;;;;;;17.30;67.17;99573.19;7404879;19;1681;-78
2023/01/18 13:47:44;;;;;;;;;;;;;;;17.39;66.59;99564.25;7403337;19;1857;-78
2023/01/18 13:50:27;;;;;;;;;;;;;;;17.53;66.32;99567.34;7404641;19;1587;-78
2023/01/18 13:55:54;;;;;;;;;;;;;;;17.41;66.87;99585.47;7431167;19;1315;-42
2023/01/18 13:58:31;;;;;;;;;;;;;;;17.34;67.55;99577.22;7434653;19;947;-42